DW0281 Itzehoe DE current weather conditions

sailwx.info

Wind from 112 at 3 knots gusting 4

Air temperature 1.7° C
Dewpoint -2.1° C

Last reported at 2020-Jan-24 10:01 UTC.
Time now 2020-Jan-24 10:57 UTC

Location: N 53°53' E 009°32'.
View on Google Maps.

See reports from other nearby stations

  
Tides and Currents Weather Stations Pressure Air Temp Water Temp Dewpoint Dewpoint Depression Visibility Wind Speed Wind Dir Waves Ship Positions
date/time (UTC)wind fromknots sea level pressurealtimeterstation pressurevisibilityair tempwater tempwave heightnotes
2020-Jan-24 10:01 112 3 gusting 4 1.7
2020-Jan-24 09:48 265 1 gusting 4 41.1
2020-Jan-24 09:33 243 3 gusting 5 43.9
2020-Jan-24 09:18 253 3 gusting 5 41.7
2020-Jan-24 09:01 135 3 gusting 4 1.7
2020-Jan-24 08:31 135 3 gusting 1 1.1
2020-Jan-24 08:16 112 3 gusting 1 1.1
2020-Jan-24 00:33 239 3 gusting 5 31.7
2020-Jan-24 00:18 255 2 gusting 6 35.6
2020-Jan-24 00:03 250 3 gusting 5 41.1
2020-Jan-23 23:03 265 1 gusting 5 31.1
2020-Jan-23 22:46 022 3.3
2020-Jan-23 22:31 112 3 gusting 1 2.2
2020-Jan-23 22:16 135 3 gusting 2 2.8
2020-Jan-23 22:01 135 3 gusting 3 2.8
2020-Jan-23 21:48 280 3 gusting 6 38.3
2020-Jan-23 21:33 213 2 gusting 6 36.1
2020-Jan-23 21:18 289 2 gusting 6 36.7
2020-Jan-23 21:01 180 3 gusting 2 2.8
2020-Jan-23 20:48 241 3 gusting 6 36.7
2020-Jan-23 20:33 265 2 gusting 6 37.2
2020-Jan-23 20:18 254 2 gusting 5 41.1
2020-Jan-23 20:01 022 3.9
2020-Jan-23 19:33 270 1 gusting 5 28.3
2020-Jan-23 19:18 252 4 gusting 6 35.0
2020-Jan-23 19:03 246 3 gusting 6 38.9
2020-Jan-23 18:31 135 3 gusting 1 3.3
2020-Jan-23 18:18 270 3 gusting 6 40.0
2020-Jan-23 18:01 067 4.4
2020-Jan-23 17:48 293 3 gusting 5 37.2
2020-Jan-23 17:33 252 2 gusting 5 37.8
2020-Jan-23 17:16 022 5.0
2020-Jan-23 17:03 265 4 gusting 6 36.7
2020-Jan-23 16:46 045 5.0
2020-Jan-23 16:33 245 4 gusting 6 41.1
2020-Jan-23 16:18 236 3 gusting 5 37.2
2020-Jan-23 16:03 265 2 gusting 6 35.0
2020-Jan-23 15:48 243 2 gusting 5 38.9
2020-Jan-23 15:33 275 3 gusting 6 36.1
2020-Jan-23 15:18 251 4 gusting 6 33.9
2020-Jan-23 15:03 265 2 gusting 6 40.6
2020-Jan-23 14:46 135 2 gusting 3 5.6
2020-Jan-23 14:31 022 6.1
2020-Jan-23 14:16 112 2 gusting 0 5.6
2020-Jan-23 14:01 135 3 gusting 2 5.6
2020-Jan-23 13:48 270 4 gusting 6 36.1
2020-Jan-23 13:31 112 2 gusting 2 5.6
2020-Jan-23 13:16 067 2 gusting 1 5.6
2020-Jan-23 13:03 254 3 gusting 6 39.4
2020-Jan-23 12:48 275 4 gusting 6 35.6
2020-Jan-23 12:33 227 4 gusting 7 38.9
2020-Jan-23 12:18 247 3 gusting 6 39.4
2020-Jan-23 12:03 265 4 gusting 6 38.3
2020-Jan-23 11:48 275 4 gusting 7 40.0
2020-Jan-23 11:31 067 6.1
2020-Jan-23 11:16 135 2 gusting 2 5.6
2020-Jan-23 11:01 315 6.1
2020-Jan-23 10:46 135 2 gusting 3 5.6
2020-Jan-23 10:16 135 2 gusting 2 5.0
2020-Jan-23 10:03 254 2 gusting 5 38.9
2020-Jan-23 09:46 157 2 5.0
2020-Jan-23 09:33 248 2 gusting 6 38.9
2020-Jan-23 09:18 257 1 gusting 4 41.1
2020-Jan-23 09:01 067 5.0
2020-Jan-23 08:48 288 2 gusting 5 40.6
2020-Jan-22 23:46 112 3.9
2020-Jan-22 23:33 251 37.8
2020-Jan-22 23:18 251 38.9
2020-Jan-22 22:46 067 5.0
2020-Jan-22 22:31 022 5.0
2020-Jan-22 22:16 270 1 gusting 0 4.4
2020-Jan-22 22:01 225 5.0
2020-Jan-22 21:48 158 0 gusting 4 42.8
2020-Jan-22 21:33 246 1 gusting 4 39.4
2020-Jan-22 21:16 067 4.4
2020-Jan-22 21:03 234 1 gusting 4 40.0
2020-Jan-22 20:46 157 3.9
2020-Jan-22 20:33 259 0 gusting 2 36.7
2020-Jan-22 20:18 250 1 gusting 2 39.4
2020-Jan-22 20:01 135 0 3.9
2020-Jan-22 19:48 275 1 gusting 3 38.3
2020-Jan-22 19:33 258 31.1
2020-Jan-22 19:18 258 0 gusting 1 38.9
2020-Jan-22 19:01 022 4.4
2020-Jan-22 18:48 258 41.1
2020-Jan-22 18:33 260 36.7
2020-Jan-22 18:18 261 0 gusting 2 41.7
2020-Jan-22 18:03 265 45.0
2020-Jan-22 17:46 067 5.6
2020-Jan-22 17:31 090 6.1
2020-Jan-22 17:18 246 0 gusting 3 42.2
2020-Jan-22 17:01 112 6.1
2020-Jan-22 16:46 247 2 gusting 0 6.1
2020-Jan-22 16:33 242 0 gusting 3 37.2
2020-Jan-22 16:16 247 3 gusting 3 6.7
2020-Jan-22 16:01 247 2 gusting 2 6.7
2020-Jan-22 15:46 337 6.7
2020-Jan-22 15:33 004 0 gusting 4 35.6
2020-Jan-22 15:16 337 6.7
2020-Jan-22 15:03 091 0 gusting 5 36.7
2020-Jan-22 14:48 098 0 gusting 2 36.7
2020-Jan-22 14:31 022 0 6.7
2020-Jan-22 14:16 337 0 gusting 1 6.7
2020-Jan-22 14:03 152 2 gusting 7 38.3
2020-Jan-22 13:48 285 2 gusting 6 36.7
2020-Jan-22 13:31 022 0 gusting 1 7.2
2020-Jan-22 13:18 058 2 gusting 8 38.9
2020-Jan-22 13:03 085 0 gusting 3 37.2
2020-Jan-22 12:46 067 0 7.2
2020-Jan-22 12:33 007 0 gusting 4 37.2
2020-Jan-22 12:03 260 1 gusting 5 38.9
2020-Jan-22 11:48 249 1 gusting 4 30.0
2020-Jan-22 11:33 314 0 gusting 5 41.1
2020-Jan-22 11:18 092 2 gusting 7 39.4
2020-Jan-22 11:03 103 1 gusting 5 36.7
2020-Jan-22 10:48 253 2 gusting 7 36.1
2020-Jan-22 10:33 079 1 gusting 5 38.9
2020-Jan-22 10:16 067 0 gusting 0 6.7
2020-Jan-22 10:01 247 3 gusting 3 5.6